sensor_id;sensor_type;location;lat;lon;timestamp;P1;durP1;ratioP1;P2;durP2;ratioP2
11879;SDS011;5999;43.256;27.816;2022-10-26T00:01:50;8.50;;;4.15;;
11879;SDS011;5999;43.256;27.816;2022-10-26T00:04:16;16.50;;;4.68;;
11879;SDS011;5999;43.256;27.816;2022-10-26T00:06:43;7.35;;;3.80;;
11879;SDS011;5999;43.256;27.816;2022-10-26T00:09:10;14.98;;;4.45;;
11879;SDS011;5999;43.256;27.816;2022-10-26T00:11:37;9.57;;;3.75;;
11879;SDS011;5999;43.256;27.816;2022-10-26T00:14:04;8.77;;;3.95;;
11879;SDS011;5999;43.256;27.816;2022-10-26T00:16:31;11.60;;;3.83;;
11879;SDS011;5999;43.256;27.816;2022-10-26T00:18:58;11.80;;;4.53;;
11879;SDS011;5999;43.256;27.816;2022-10-26T00:21:25;11.13;;;4.28;;
11879;SDS011;5999;43.256;27.816;2022-10-26T00:23:52;8.00;;;3.67;;
11879;SDS011;5999;43.256;27.816;2022-10-26T00:26:19;9.23;;;4.05;;
11879;SDS011;5999;43.256;27.816;2022-10-26T00:28:46;10.80;;;4.63;;
11879;SDS011;5999;43.256;27.816;2022-10-26T00:31:14;9.30;;;3.58;;
11879;SDS011;5999;43.256;27.816;2022-10-26T00:33:42;15.23;;;4.35;;
11879;SDS011;5999;43.256;27.816;2022-10-26T00:36:09;11.07;;;4.03;;
11879;SDS011;5999;43.256;27.816;2022-10-26T00:38:38;10.02;;;4.07;;
11879;SDS011;5999;43.256;27.816;2022-10-26T00:41:11;13.68;;;4.68;;
11879;SDS011;5999;43.256;27.816;2022-10-26T00:43:39;9.00;;;4.03;;
11879;SDS011;5999;43.256;27.816;2022-10-26T00:46:08;13.82;;;4.43;;
11879;SDS011;5999;43.256;27.816;2022-10-26T00:48:39;14.77;;;5.20;;
11879;SDS011;5999;43.256;27.816;2022-10-26T00:51:12;9.73;;;4.97;;
11879;SDS011;5999;43.256;27.816;2022-10-26T00:53:45;11.23;;;5.13;;
11879;SDS011;5999;43.256;27.816;2022-10-26T00:56:12;14.23;;;5.32;;
11879;SDS011;5999;43.256;27.816;2022-10-26T00:58:39;11.35;;;4.45;;
11879;SDS011;5999;43.256;27.816;2022-10-26T01:01:07;15.77;;;5.50;;
11879;SDS011;5999;43.256;27.816;2022-10-26T01:03:34;15.52;;;5.50;;
11879;SDS011;5999;43.256;27.816;2022-10-26T01:06:03;9.40;;;4.75;;
11879;SDS011;5999;43.256;27.816;2022-10-26T01:08:32;14.32;;;5.65;;
11879;SDS011;5999;43.256;27.816;2022-10-26T01:10:59;9.32;;;5.07;;
11879;SDS011;5999;43.256;27.816;2022-10-26T01:13:28;11.95;;;4.45;;
11879;SDS011;5999;43.256;27.816;2022-10-26T01:16:02;10.60;;;4.40;;
11879;SDS011;5999;43.256;27.816;2022-10-26T01:18:43;10.60;;;4.55;;
11879;SDS011;5999;43.256;27.816;2022-10-26T01:21:22;10.20;;;4.53;;
11879;SDS011;5999;43.256;27.816;2022-10-26T01:27:15;9.07;;;4.53;;
11879;SDS011;5999;43.256;27.816;2022-10-26T01:33:02;5.90;;;3.85;;
11879;SDS011;5999;43.256;27.816;2022-10-26T01:35:46;14.57;;;4.87;;
11879;SDS011;5999;43.256;27.816;2022-10-26T01:38:21;6.93;;;4.53;;
11879;SDS011;5999;43.256;27.816;2022-10-26T01:40:53;13.00;;;4.93;;
11879;SDS011;5999;43.256;27.816;2022-10-26T01:43:25;13.40;;;5.30;;
11879;SDS011;5999;43.256;27.816;2022-10-26T01:45:56;13.80;;;5.80;;
11879;SDS011;5999;43.256;27.816;2022-10-26T01:48:26;15.43;;;5.60;;
11879;SDS011;5999;43.256;27.816;2022-10-26T01:50:55;12.15;;;5.68;;
11879;SDS011;5999;43.256;27.816;2022-10-26T01:53:24;12.48;;;6.43;;
11879;SDS011;5999;43.256;27.816;2022-10-26T01:55:52;16.15;;;6.60;;
11879;SDS011;5999;43.256;27.816;2022-10-26T02:01:12;18.70;;;6.53;;
11879;SDS011;5999;43.256;27.816;2022-10-26T02:03:49;16.17;;;6.37;;
11879;SDS011;5999;43.256;27.816;2022-10-26T02:06:25;18.67;;;7.13;;
11879;SDS011;5999;43.256;27.816;2022-10-26T02:09:00;14.50;;;7.67;;
11879;SDS011;5999;43.256;27.816;2022-10-26T02:11:37;14.00;;;7.03;;
11879;SDS011;5999;43.256;27.816;2022-10-26T02:14:07;15.38;;;6.60;;
11879;SDS011;5999;43.256;27.816;2022-10-26T02:16:40;16.87;;;6.90;;
11879;SDS011;5999;43.256;27.816;2022-10-26T02:19:18;13.27;;;6.88;;
11879;SDS011;5999;43.256;27.816;2022-10-26T02:22:00;13.77;;;7.03;;
11879;SDS011;5999;43.256;27.816;2022-10-26T02:24:33;15.38;;;7.35;;
11879;SDS011;5999;43.256;27.816;2022-10-26T02:27:02;15.77;;;6.70;;
11879;SDS011;5999;43.256;27.816;2022-10-26T02:29:36;19.58;;;7.13;;
11879;SDS011;5999;43.256;27.816;2022-10-26T02:32:05;12.68;;;7.30;;
11879;SDS011;5999;43.256;27.816;2022-10-26T02:34:35;17.77;;;7.60;;
11879;SDS011;5999;43.256;27.816;2022-10-26T02:37:04;15.50;;;7.50;;
11879;SDS011;5999;43.256;27.816;2022-10-26T02:39:32;16.08;;;7.35;;
11879;SDS011;5999;43.256;27.816;2022-10-26T02:42:02;17.35;;;8.25;;
11879;SDS011;5999;43.256;27.816;2022-10-26T02:44:34;15.55;;;7.82;;
11879;SDS011;5999;43.256;27.816;2022-10-26T02:47:06;15.38;;;7.68;;
11879;SDS011;5999;43.256;27.816;2022-10-26T02:49:33;16.00;;;7.10;;
11879;SDS011;5999;43.256;27.816;2022-10-26T02:52:01;23.58;;;8.95;;
11879;SDS011;5999;43.256;27.816;2022-10-26T02:54:34;18.13;;;8.43;;
11879;SDS011;5999;43.256;27.816;2022-10-26T02:57:10;15.93;;;8.07;;
11879;SDS011;5999;43.256;27.816;2022-10-26T02:59:40;14.50;;;7.47;;
11879;SDS011;5999;43.256;27.816;2022-10-26T03:02:11;16.70;;;8.18;;
11879;SDS011;5999;43.256;27.816;2022-10-26T03:04:41;16.43;;;8.20;;
11879;SDS011;5999;43.256;27.816;2022-10-26T03:07:08;14.70;;;7.50;;
11879;SDS011;5999;43.256;27.816;2022-10-26T03:09:34;17.40;;;7.80;;
11879;SDS011;5999;43.256;27.816;2022-10-26T03:12:01;17.38;;;7.15;;
11879;SDS011;5999;43.256;27.816;2022-10-26T03:14:29;12.83;;;7.00;;
11879;SDS011;5999;43.256;27.816;2022-10-26T03:16:55;11.05;;;6.93;;
11879;SDS011;5999;43.256;27.816;2022-10-26T03:19:22;14.90;;;8.05;;
11879;SDS011;5999;43.256;27.816;2022-10-26T03:21:50;13.30;;;6.43;;
11879;SDS011;5999;43.256;27.816;2022-10-26T03:24:17;19.65;;;7.68;;
11879;SDS011;5999;43.256;27.816;2022-10-26T03:26:44;15.95;;;7.18;;
11879;SDS011;5999;43.256;27.816;2022-10-26T03:29:11;20.80;;;7.70;;
11879;SDS011;5999;43.256;27.816;2022-10-26T03:31:37;17.30;;;7.67;;
11879;SDS011;5999;43.256;27.816;2022-10-26T03:34:04;13.70;;;6.80;;
11879;SDS011;5999;43.256;27.816;2022-10-26T03:36:31;12.90;;;6.40;;
11879;SDS011;5999;43.256;27.816;2022-10-26T03:38:59;14.13;;;7.47;;
11879;SDS011;5999;43.256;27.816;2022-10-26T03:41:26;13.43;;;6.63;;
11879;SDS011;5999;43.256;27.816;2022-10-26T03:43:53;15.93;;;7.40;;
11879;SDS011;5999;43.256;27.816;2022-10-26T03:46:19;11.77;;;6.60;;
11879;SDS011;5999;43.256;27.816;2022-10-26T03:48:46;17.30;;;7.07;;
11879;SDS011;5999;43.256;27.816;2022-10-26T03:51:13;13.10;;;7.20;;
11879;SDS011;5999;43.256;27.816;2022-10-26T03:53:40;12.60;;;7.30;;
11879;SDS011;5999;43.256;27.816;2022-10-26T03:56:07;16.83;;;7.67;;
11879;SDS011;5999;43.256;27.816;2022-10-26T03:58:34;14.57;;;7.13;;
11879;SDS011;5999;43.256;27.816;2022-10-26T04:01:01;11.53;;;7.10;;
11879;SDS011;5999;43.256;27.816;2022-10-26T04:03:28;13.40;;;6.77;;
11879;SDS011;5999;43.256;27.816;2022-10-26T04:05:55;11.90;;;7.53;;
11879;SDS011;5999;43.256;27.816;2022-10-26T04:08:24;16.93;;;7.17;;
11879;SDS011;5999;43.256;27.816;2022-10-26T04:10:51;13.87;;;7.30;;
11879;SDS011;5999;43.256;27.816;2022-10-26T04:13:18;12.87;;;6.90;;
11879;SDS011;5999;43.256;27.816;2022-10-26T04:15:45;13.33;;;6.53;;
11879;SDS011;5999;43.256;27.816;2022-10-26T04:18:12;14.43;;;6.93;;
11879;SDS011;5999;43.256;27.816;2022-10-26T04:20:39;16.07;;;7.43;;
11879;SDS011;5999;43.256;27.816;2022-10-26T04:23:08;14.57;;;7.40;;
11879;SDS011;5999;43.256;27.816;2022-10-26T04:25:37;19.30;;;7.63;;
11879;SDS011;5999;43.256;27.816;2022-10-26T04:28:05;11.63;;;6.93;;
11879;SDS011;5999;43.256;27.816;2022-10-26T04:30:34;14.90;;;7.50;;
11879;SDS011;5999;43.256;27.816;2022-10-26T04:33:01;12.83;;;7.17;;
11879;SDS011;5999;43.256;27.816;2022-10-26T04:35:28;17.30;;;7.20;;
11879;SDS011;5999;43.256;27.816;2022-10-26T04:37:56;11.87;;;6.70;;
11879;SDS011;5999;43.256;27.816;2022-10-26T04:40:23;11.93;;;7.00;;
11879;SDS011;5999;43.256;27.816;2022-10-26T04:42:51;14.10;;;7.13;;
11879;SDS011;5999;43.256;27.816;2022-10-26T04:45:17;13.47;;;7.23;;
11879;SDS011;5999;43.256;27.816;2022-10-26T04:47:45;15.73;;;6.30;;
11879;SDS011;5999;43.256;27.816;2022-10-26T04:50:12;12.10;;;6.60;;
11879;SDS011;5999;43.256;27.816;2022-10-26T04:52:39;11.47;;;6.47;;
11879;SDS011;5999;43.256;27.816;2022-10-26T04:55:06;15.07;;;6.13;;
11879;SDS011;5999;43.256;27.816;2022-10-26T04:57:33;10.83;;;6.67;;
11879;SDS011;5999;43.256;27.816;2022-10-26T05:00:01;22.77;;;6.83;;
11879;SDS011;5999;43.256;27.816;2022-10-26T05:02:29;12.10;;;6.13;;
11879;SDS011;5999;43.256;27.816;2022-10-26T05:04:56;13.67;;;5.53;;
11879;SDS011;5999;43.256;27.816;2022-10-26T05:07:23;10.33;;;5.60;;
11879;SDS011;5999;43.256;27.816;2022-10-26T05:09:50;11.87;;;5.83;;
11879;SDS011;5999;43.256;27.816;2022-10-26T05:12:17;12.60;;;6.20;;
11879;SDS011;5999;43.256;27.816;2022-10-26T05:14:44;6.77;;;4.90;;
11879;SDS011;5999;43.256;27.816;2022-10-26T05:17:10;13.23;;;5.37;;
11879;SDS011;5999;43.256;27.816;2022-10-26T05:19:37;13.23;;;5.67;;
11879;SDS011;5999;43.256;27.816;2022-10-26T05:22:05;12.87;;;6.63;;
11879;SDS011;5999;43.256;27.816;2022-10-26T05:24:32;12.87;;;6.57;;
11879;SDS011;5999;43.256;27.816;2022-10-26T05:26:59;10.93;;;6.40;;
11879;SDS011;5999;43.256;27.816;2022-10-26T05:29:26;13.83;;;7.00;;
11879;SDS011;5999;43.256;27.816;2022-10-26T05:31:53;9.27;;;5.60;;
11879;SDS011;5999;43.256;27.816;2022-10-26T05:34:19;10.57;;;6.37;;
11879;SDS011;5999;43.256;27.816;2022-10-26T05:36:46;13.90;;;6.47;;
11879;SDS011;5999;43.256;27.816;2022-10-26T05:39:14;13.57;;;6.10;;
11879;SDS011;5999;43.256;27.816;2022-10-26T05:41:41;12.13;;;6.80;;
11879;SDS011;5999;43.256;27.816;2022-10-26T05:44:07;17.03;;;6.67;;
11879;SDS011;5999;43.256;27.816;2022-10-26T05:46:34;15.33;;;6.87;;
11879;SDS011;5999;43.256;27.816;2022-10-26T05:49:01;16.47;;;7.10;;
11879;SDS011;5999;43.256;27.816;2022-10-26T05:51:28;11.88;;;6.07;;
11879;SDS011;5999;43.256;27.816;2022-10-26T05:53:57;10.93;;;6.53;;
11879;SDS011;5999;43.256;27.816;2022-10-26T05:56:31;20.47;;;7.57;;
11879;SDS011;5999;43.256;27.816;2022-10-26T05:59:01;19.73;;;6.97;;
11879;SDS011;5999;43.256;27.816;2022-10-26T06:01:31;17.87;;;7.10;;
11879;SDS011;5999;43.256;27.816;2022-10-26T06:04:08;19.87;;;8.30;;
11879;SDS011;5999;43.256;27.816;2022-10-26T06:06:45;23.17;;;11.03;;
11879;SDS011;5999;43.256;27.816;2022-10-26T06:09:17;25.77;;;11.93;;
11879;SDS011;5999;43.256;27.816;2022-10-26T06:11:46;27.07;;;10.87;;
11879;SDS011;5999;43.256;27.816;2022-10-26T06:14:13;35.50;;;9.73;;
11879;SDS011;5999;43.256;27.816;2022-10-26T06:16:45;19.83;;;7.07;;
11879;SDS011;5999;43.256;27.816;2022-10-26T06:19:29;11.82;;;5.80;;
11879;SDS011;5999;43.256;27.816;2022-10-26T06:22:10;26.42;;;6.30;;
11879;SDS011;5999;43.256;27.816;2022-10-26T06:24:49;19.08;;;6.95;;
11879;SDS011;5999;43.256;27.816;2022-10-26T06:27:27;12.13;;;5.70;;
11879;SDS011;5999;43.256;27.816;2022-10-26T06:30:01;8.13;;;5.47;;
11879;SDS011;5999;43.256;27.816;2022-10-26T06:32:31;15.55;;;6.45;;
11879;SDS011;5999;43.256;27.816;2022-10-26T06:35:08;13.02;;;6.13;;
11879;SDS011;5999;43.256;27.816;2022-10-26T06:37:43;19.95;;;6.88;;
11879;SDS011;5999;43.256;27.816;2022-10-26T06:40:11;16.15;;;7.03;;
11879;SDS011;5999;43.256;27.816;2022-10-26T06:42:41;16.30;;;6.85;;
11879;SDS011;5999;43.256;27.816;2022-10-26T06:45:10;12.38;;;6.50;;
11879;SDS011;5999;43.256;27.816;2022-10-26T06:47:39;13.60;;;5.80;;
11879;SDS011;5999;43.256;27.816;2022-10-26T06:50:16;17.70;;;5.90;;
11879;SDS011;5999;43.256;27.816;2022-10-26T06:52:54;18.73;;;6.13;;
11879;SDS011;5999;43.256;27.816;2022-10-26T06:55:29;10.38;;;6.00;;
11879;SDS011;5999;43.256;27.816;2022-10-26T06:58:06;13.75;;;6.38;;
11879;SDS011;5999;43.256;27.816;2022-10-26T07:00:37;17.52;;;6.60;;
11879;SDS011;5999;43.256;27.816;2022-10-26T07:03:05;12.02;;;5.88;;
11879;SDS011;5999;43.256;27.816;2022-10-26T07:05:32;12.65;;;5.65;;
11879;SDS011;5999;43.256;27.816;2022-10-26T07:07:59;10.43;;;5.38;;
11879;SDS011;5999;43.256;27.816;2022-10-26T07:10:25;12.23;;;6.03;;
11879;SDS011;5999;43.256;27.816;2022-10-26T07:12:52;13.52;;;5.88;;
11879;SDS011;5999;43.256;27.816;2022-10-26T07:15:20;10.63;;;6.03;;
11879;SDS011;5999;43.256;27.816;2022-10-26T07:17:47;15.90;;;6.65;;
11879;SDS011;5999;43.256;27.816;2022-10-26T07:20:15;14.25;;;7.25;;
11879;SDS011;5999;43.256;27.816;2022-10-26T07:22:43;19.25;;;7.15;;
11879;SDS011;5999;43.256;27.816;2022-10-26T07:25:10;11.88;;;6.53;;
11879;SDS011;5999;43.256;27.816;2022-10-26T07:27:37;12.52;;;6.57;;
11879;SDS011;5999;43.256;27.816;2022-10-26T07:30:05;11.88;;;6.28;;
11879;SDS011;5999;43.256;27.816;2022-10-26T07:32:33;15.30;;;6.43;;
11879;SDS011;5999;43.256;27.816;2022-10-26T07:35:00;16.10;;;6.57;;
11879;SDS011;5999;43.256;27.816;2022-10-26T07:37:27;16.38;;;6.63;;
11879;SDS011;5999;43.256;27.816;2022-10-26T07:39:54;13.65;;;6.45;;
11879;SDS011;5999;43.256;27.816;2022-10-26T07:42:21;10.73;;;5.00;;
11879;SDS011;5999;43.256;27.816;2022-10-26T07:44:47;14.30;;;7.30;;
11879;SDS011;5999;43.256;27.816;2022-10-26T07:47:14;11.80;;;7.35;;
11879;SDS011;5999;43.256;27.816;2022-10-26T07:49:42;20.98;;;7.65;;
11879;SDS011;5999;43.256;27.816;2022-10-26T07:52:09;15.13;;;6.28;;
11879;SDS011;5999;43.256;27.816;2022-10-26T07:54:36;14.60;;;6.55;;
11879;SDS011;5999;43.256;27.816;2022-10-26T07:57:02;12.35;;;6.15;;
11879;SDS011;5999;43.256;27.816;2022-10-26T07:59:29;14.63;;;5.93;;
11879;SDS011;5999;43.256;27.816;2022-10-26T08:01:56;10.98;;;6.20;;
11879;SDS011;5999;43.256;27.816;2022-10-26T08:04:23;10.05;;;5.47;;
11879;SDS011;5999;43.256;27.816;2022-10-26T08:06:50;11.20;;;5.05;;
11879;SDS011;5999;43.256;27.816;2022-10-26T08:09:17;10.00;;;5.05;;
11879;SDS011;5999;43.256;27.816;2022-10-26T08:11:45;11.98;;;4.97;;
11879;SDS011;5999;43.256;27.816;2022-10-26T08:14:12;8.00;;;4.22;;
11879;SDS011;5999;43.256;27.816;2022-10-26T08:16:39;10.23;;;4.35;;
11879;SDS011;5999;43.256;27.816;2022-10-26T08:19:06;10.18;;;4.07;;
11879;SDS011;5999;43.256;27.816;2022-10-26T08:21:33;9.20;;;4.28;;
11879;SDS011;5999;43.256;27.816;2022-10-26T08:24:00;6.13;;;3.72;;
11879;SDS011;5999;43.256;27.816;2022-10-26T08:26:27;7.35;;;3.60;;
11879;SDS011;5999;43.256;27.816;2022-10-26T08:28:54;7.20;;;3.78;;
11879;SDS011;5999;43.256;27.816;2022-10-26T08:31:21;8.25;;;3.53;;
11879;SDS011;5999;43.256;27.816;2022-10-26T08:33:48;5.97;;;3.10;;
11879;SDS011;5999;43.256;27.816;2022-10-26T08:36:15;4.80;;;2.75;;
11879;SDS011;5999;43.256;27.816;2022-10-26T08:38:48;6.07;;;2.72;;
11879;SDS011;5999;43.256;27.816;2022-10-26T08:41:17;6.47;;;2.85;;
11879;SDS011;5999;43.256;27.816;2022-10-26T08:43:51;12.63;;;2.78;;
11879;SDS011;5999;43.256;27.816;2022-10-26T08:46:22;9.10;;;2.53;;
11879;SDS011;5999;43.256;27.816;2022-10-26T08:48:54;4.40;;;2.50;;
11879;SDS011;5999;43.256;27.816;2022-10-26T08:51:25;2.63;;;2.25;;
11879;SDS011;5999;43.256;27.816;2022-10-26T08:53:59;3.17;;;2.38;;
11879;SDS011;5999;43.256;27.816;2022-10-26T08:56:33;5.85;;;2.45;;
11879;SDS011;5999;43.256;27.816;2022-10-26T08:59:06;3.47;;;2.58;;
11879;SDS011;5999;43.256;27.816;2022-10-26T09:01:38;2.17;;;1.88;;
11879;SDS011;5999;43.256;27.816;2022-10-26T09:04:08;3.60;;;2.15;;
11879;SDS011;5999;43.256;27.816;2022-10-26T09:06:40;4.10;;;2.10;;
11879;SDS011;5999;43.256;27.816;2022-10-26T09:09:16;4.47;;;2.35;;
11879;SDS011;5999;43.256;27.816;2022-10-26T09:11:50;5.47;;;2.70;;
11879;SDS011;5999;43.256;27.816;2022-10-26T09:14:23;2.35;;;2.10;;
11879;SDS011;5999;43.256;27.816;2022-10-26T09:17:06;2.25;;;2.05;;
11879;SDS011;5999;43.256;27.816;2022-10-26T09:20:03;7.40;;;2.38;;
11879;SDS011;5999;43.256;27.816;2022-10-26T09:22:52;7.88;;;2.00;;
11879;SDS011;5999;43.256;27.816;2022-10-26T09:25:28;4.85;;;2.20;;
11879;SDS011;5999;43.256;27.816;2022-10-26T09:28:04;6.22;;;2.08;;
11879;SDS011;5999;43.256;27.816;2022-10-26T09:30:36;7.20;;;2.28;;
11879;SDS011;5999;43.256;27.816;2022-10-26T09:33:04;3.90;;;2.22;;
11879;SDS011;5999;43.256;27.816;2022-10-26T09:35:41;4.40;;;2.30;;
11879;SDS011;5999;43.256;27.816;2022-10-26T09:38:12;3.67;;;2.35;;
11879;SDS011;5999;43.256;27.816;2022-10-26T09:40:47;4.00;;;2.40;;
11879;SDS011;5999;43.256;27.816;2022-10-26T09:43:22;4.65;;;2.58;;
11879;SDS011;5999;43.256;27.816;2022-10-26T09:45:52;4.05;;;2.55;;
11879;SDS011;5999;43.256;27.816;2022-10-26T09:48:21;2.50;;;2.00;;
11879;SDS011;5999;43.256;27.816;2022-10-26T09:50:53;5.15;;;2.20;;
11879;SDS011;5999;43.256;27.816;2022-10-26T09:53:23;4.80;;;2.05;;
11879;SDS011;5999;43.256;27.816;2022-10-26T09:55:58;3.13;;;2.22;;
11879;SDS011;5999;43.256;27.816;2022-10-26T09:58:31;4.05;;;2.00;;
11879;SDS011;5999;43.256;27.816;2022-10-26T10:01:02;3.83;;;2.33;;
11879;SDS011;5999;43.256;27.816;2022-10-26T10:03:30;4.85;;;2.65;;
11879;SDS011;5999;43.256;27.816;2022-10-26T10:06:13;2.63;;;2.03;;
11879;SDS011;5999;43.256;27.816;2022-10-26T10:08:41;5.18;;;2.38;;
11879;SDS011;5999;43.256;27.816;2022-10-26T10:11:11;3.50;;;2.20;;
11879;SDS011;5999;43.256;27.816;2022-10-26T10:13:40;3.28;;;2.20;;
11879;SDS011;5999;43.256;27.816;2022-10-26T10:16:10;4.47;;;2.30;;
11879;SDS011;5999;43.256;27.816;2022-10-26T10:18:51;3.83;;;2.17;;
11879;SDS011;5999;43.256;27.816;2022-10-26T10:21:19;4.45;;;2.30;;
11879;SDS011;5999;43.256;27.816;2022-10-26T10:23:57;9.15;;;5.32;;
11879;SDS011;5999;43.256;27.816;2022-10-26T10:26:24;10.70;;;4.40;;
11879;SDS011;5999;43.256;27.816;2022-10-26T10:28:58;4.10;;;2.30;;
11879;SDS011;5999;43.256;27.816;2022-10-26T10:31:28;3.22;;;2.60;;
11879;SDS011;5999;43.256;27.816;2022-10-26T10:33:56;3.90;;;2.35;;
11879;SDS011;5999;43.256;27.816;2022-10-26T10:36:23;2.47;;;2.25;;
11879;SDS011;5999;43.256;27.816;2022-10-26T10:38:53;2.13;;;1.92;;
11879;SDS011;5999;43.256;27.816;2022-10-26T10:41:23;3.35;;;2.25;;
11879;SDS011;5999;43.256;27.816;2022-10-26T10:43:54;3.42;;;2.22;;
11879;SDS011;5999;43.256;27.816;2022-10-26T10:46:30;5.60;;;1.85;;
11879;SDS011;5999;43.256;27.816;2022-10-26T10:49:02;2.10;;;1.80;;
11879;SDS011;5999;43.256;27.816;2022-10-26T10:51:33;4.90;;;2.28;;
11879;SDS011;5999;43.256;27.816;2022-10-26T10:54:03;6.72;;;2.30;;
11879;SDS011;5999;43.256;27.816;2022-10-26T10:56:32;2.60;;;1.90;;
11879;SDS011;5999;43.256;27.816;2022-10-26T11:02:11;6.25;;;2.05;;
11879;SDS011;5999;43.256;27.816;2022-10-26T11:05:06;2.50;;;1.88;;
11879;SDS011;5999;43.256;27.816;2022-10-26T11:07:49;3.47;;;2.40;;
11879;SDS011;5999;43.256;27.816;2022-10-26T11:10:19;5.40;;;2.10;;
11879;SDS011;5999;43.256;27.816;2022-10-26T11:12:50;2.53;;;2.17;;
11879;SDS011;5999;43.256;27.816;2022-10-26T11:15:22;7.03;;;2.80;;
11879;SDS011;5999;43.256;27.816;2022-10-26T11:17:54;6.07;;;2.35;;
11879;SDS011;5999;43.256;27.816;2022-10-26T11:20:31;2.55;;;1.90;;
11879;SDS011;5999;43.256;27.816;2022-10-26T11:23:03;4.93;;;2.00;;
11879;SDS011;5999;43.256;27.816;2022-10-26T11:25:39;5.00;;;2.60;;
11879;SDS011;5999;43.256;27.816;2022-10-26T11:28:13;2.75;;;2.10;;
11879;SDS011;5999;43.256;27.816;2022-10-26T11:30:46;3.30;;;2.13;;
11879;SDS011;5999;43.256;27.816;2022-10-26T11:33:19;3.10;;;2.10;;
11879;SDS011;5999;43.256;27.816;2022-10-26T11:35:55;4.30;;;2.28;;
11879;SDS011;5999;43.256;27.816;2022-10-26T11:38:28;3.33;;;2.15;;
11879;SDS011;5999;43.256;27.816;2022-10-26T11:41:02;2.95;;;2.03;;
11879;SDS011;5999;43.256;27.816;2022-10-26T11:43:34;2.35;;;1.88;;
11879;SDS011;5999;43.256;27.816;2022-10-26T11:46:07;3.17;;;2.03;;
11879;SDS011;5999;43.256;27.816;2022-10-26T11:48:39;4.63;;;2.00;;
11879;SDS011;5999;43.256;27.816;2022-10-26T11:51:14;2.20;;;1.80;;
11879;SDS011;5999;43.256;27.816;2022-10-26T11:53:45;6.65;;;2.10;;
11879;SDS011;5999;43.256;27.816;2022-10-26T11:56:15;3.67;;;2.10;;
11879;SDS011;5999;43.256;27.816;2022-10-26T11:58:49;3.63;;;2.13;;
11879;SDS011;5999;43.256;27.816;2022-10-26T12:01:16;2.75;;;2.10;;
11879;SDS011;5999;43.256;27.816;2022-10-26T12:03:45;3.45;;;2.08;;
11879;SDS011;5999;43.256;27.816;2022-10-26T12:06:16;2.97;;;2.00;;
11879;SDS011;5999;43.256;27.816;2022-10-26T12:08:50;3.55;;;2.47;;
11879;SDS011;5999;43.256;27.816;2022-10-26T12:11:27;4.63;;;2.35;;
11879;SDS011;5999;43.256;27.816;2022-10-26T12:14:01;5.32;;;2.38;;
11879;SDS011;5999;43.256;27.816;2022-10-26T12:16:40;2.70;;;1.80;;
11879;SDS011;5999;43.256;27.816;2022-10-26T12:19:14;3.08;;;2.10;;
11879;SDS011;5999;43.256;27.816;2022-10-26T12:21:47;2.78;;;2.20;;
11879;SDS011;5999;43.256;27.816;2022-10-26T12:24:25;7.07;;;2.40;;
11879;SDS011;5999;43.256;27.816;2022-10-26T12:26:54;6.93;;;2.20;;
11879;SDS011;5999;43.256;27.816;2022-10-26T12:29:29;4.60;;;2.08;;
11879;SDS011;5999;43.256;27.816;2022-10-26T12:31:58;4.57;;;2.60;;
11879;SDS011;5999;43.256;27.816;2022-10-26T12:37:30;4.63;;;2.22;;
11879;SDS011;5999;43.256;27.816;2022-10-26T12:52:16;3.42;;;2.25;;
11879;SDS011;5999;43.256;27.816;2022-10-26T12:54:47;3.70;;;1.90;;
11879;SDS011;5999;43.256;27.816;2022-10-26T12:57:36;4.78;;;2.50;;
11879;SDS011;5999;43.256;27.816;2022-10-26T13:00:11;2.78;;;2.00;;
11879;SDS011;5999;43.256;27.816;2022-10-26T13:02:45;4.60;;;1.75;;
11879;SDS011;5999;43.256;27.816;2022-10-26T13:05:30;3.63;;;2.20;;
11879;SDS011;5999;43.256;27.816;2022-10-26T13:08:23;2.95;;;2.10;;
11879;SDS011;5999;43.256;27.816;2022-10-26T13:10:59;4.20;;;2.33;;
11879;SDS011;5999;43.256;27.816;2022-10-26T13:13:28;3.45;;;2.08;;
11879;SDS011;5999;43.256;27.816;2022-10-26T13:15:57;3.75;;;2.10;;
11879;SDS011;5999;43.256;27.816;2022-10-26T13:18:25;10.05;;;2.15;;
11879;SDS011;5999;43.256;27.816;2022-10-26T13:20:57;5.15;;;2.00;;
11879;SDS011;5999;43.256;27.816;2022-10-26T13:23:30;3.47;;;1.92;;
11879;SDS011;5999;43.256;27.816;2022-10-26T13:26:03;8.13;;;1.85;;
11879;SDS011;5999;43.256;27.816;2022-10-26T13:28:34;5.82;;;2.00;;
11879;SDS011;5999;43.256;27.816;2022-10-26T13:31:15;2.88;;;1.92;;
11879;SDS011;5999;43.256;27.816;2022-10-26T13:34:02;3.92;;;2.20;;
11879;SDS011;5999;43.256;27.816;2022-10-26T13:36:35;4.72;;;2.35;;
11879;SDS011;5999;43.256;27.816;2022-10-26T13:39:09;5.97;;;2.40;;
11879;SDS011;5999;43.256;27.816;2022-10-26T13:41:42;20.60;;;3.90;;
11879;SDS011;5999;43.256;27.816;2022-10-26T13:44:13;7.30;;;2.38;;
11879;SDS011;5999;43.256;27.816;2022-10-26T13:46:46;2.38;;;1.98;;
11879;SDS011;5999;43.256;27.816;2022-10-26T13:49:21;2.90;;;2.05;;
11879;SDS011;5999;43.256;27.816;2022-10-26T13:51:52;3.00;;;2.13;;
11879;SDS011;5999;43.256;27.816;2022-10-26T13:54:22;2.95;;;1.85;;
11879;SDS011;5999;43.256;27.816;2022-10-26T13:56:57;2.65;;;2.03;;
11879;SDS011;5999;43.256;27.816;2022-10-26T13:59:36;4.28;;;1.98;;
11879;SDS011;5999;43.256;27.816;2022-10-26T14:02:14;3.30;;;1.90;;
11879;SDS011;5999;43.256;27.816;2022-10-26T14:04:46;4.68;;;2.00;;
11879;SDS011;5999;43.256;27.816;2022-10-26T14:07:17;6.80;;;3.13;;
11879;SDS011;5999;43.256;27.816;2022-10-26T14:09:55;5.15;;;3.60;;
11879;SDS011;5999;43.256;27.816;2022-10-26T14:12:22;8.45;;;3.92;;
11879;SDS011;5999;43.256;27.816;2022-10-26T14:14:53;12.88;;;5.05;;
11879;SDS011;5999;43.256;27.816;2022-10-26T14:17:26;13.23;;;4.95;;
11879;SDS011;5999;43.256;27.816;2022-10-26T14:19:52;6.70;;;4.30;;
11879;SDS011;5999;43.256;27.816;2022-10-26T14:22:20;7.18;;;4.45;;
11879;SDS011;5999;43.256;27.816;2022-10-26T14:24:49;9.55;;;4.25;;
11879;SDS011;5999;43.256;27.816;2022-10-26T14:27:19;10.15;;;4.88;;
11879;SDS011;5999;43.256;27.816;2022-10-26T14:29:47;12.75;;;5.20;;
11879;SDS011;5999;43.256;27.816;2022-10-26T14:32:21;10.27;;;4.13;;
11879;SDS011;5999;43.256;27.816;2022-10-26T14:34:51;12.77;;;5.07;;
11879;SDS011;5999;43.256;27.816;2022-10-26T14:37:22;3.80;;;2.63;;
11879;SDS011;5999;43.256;27.816;2022-10-26T14:39:59;8.98;;;5.03;;
11879;SDS011;5999;43.256;27.816;2022-10-26T14:42:28;16.15;;;4.88;;
11879;SDS011;5999;43.256;27.816;2022-10-26T14:44:57;13.63;;;5.88;;
11879;SDS011;5999;43.256;27.816;2022-10-26T14:47:25;13.68;;;5.40;;
11879;SDS011;5999;43.256;27.816;2022-10-26T14:49:53;11.82;;;5.78;;
11879;SDS011;5999;43.256;27.816;2022-10-26T14:52:22;11.98;;;5.70;;
11879;SDS011;5999;43.256;27.816;2022-10-26T14:55:01;8.10;;;5.60;;
11879;SDS011;5999;43.256;27.816;2022-10-26T14:57:30;11.13;;;5.80;;
11879;SDS011;5999;43.256;27.816;2022-10-26T14:59:59;10.23;;;6.05;;
11879;SDS011;5999;43.256;27.816;2022-10-26T15:02:28;15.23;;;6.22;;
11879;SDS011;5999;43.256;27.816;2022-10-26T15:04:56;11.07;;;5.78;;
11879;SDS011;5999;43.256;27.816;2022-10-26T15:07:32;12.52;;;5.95;;
11879;SDS011;5999;43.256;27.816;2022-10-26T15:10:02;15.23;;;6.43;;
11879;SDS011;5999;43.256;27.816;2022-10-26T15:12:31;12.98;;;6.88;;
11879;SDS011;5999;43.256;27.816;2022-10-26T15:15:09;13.32;;;6.68;;
11879;SDS011;5999;43.256;27.816;2022-10-26T15:17:47;11.57;;;6.50;;
11879;SDS011;5999;43.256;27.816;2022-10-26T15:20:17;13.57;;;6.85;;
11879;SDS011;5999;43.256;27.816;2022-10-26T15:22:49;12.38;;;6.97;;
11879;SDS011;5999;43.256;27.816;2022-10-26T15:25:17;12.05;;;7.47;;
11879;SDS011;5999;43.256;27.816;2022-10-26T15:27:48;14.70;;;7.45;;
11879;SDS011;5999;43.256;27.816;2022-10-26T15:30:20;18.55;;;7.70;;